sensor_id;sensor_type;location;lat;lon;timestamp;temperature;humidity
43884;DHT22;29544;52.018;5.810;2023-06-19T00:00:50;24.50;49.50
43884;DHT22;29544;52.018;5.810;2023-06-19T00:03:15;24.50;49.50
43884;DHT22;29544;52.018;5.810;2023-06-19T00:05:41;24.50;50.10
43884;DHT22;29544;52.018;5.810;2023-06-19T00:08:06;24.50;49.50
43884;DHT22;29544;52.018;5.810;2023-06-19T00:10:32;24.50;49.50
43884;DHT22;29544;52.018;5.810;2023-06-19T00:12:58;24.40;49.50
43884;DHT22;29544;52.018;5.810;2023-06-19T00:15:23;24.50;49.60
43884;DHT22;29544;52.018;5.810;2023-06-19T00:17:48;24.40;49.50
43884;DHT22;29544;52.018;5.810;2023-06-19T00:20:14;24.40;49.60
43884;DHT22;29544;52.018;5.810;2023-06-19T00:22:40;24.50;49.60
43884;DHT22;29544;52.018;5.810;2023-06-19T00:25:06;24.40;49.60
43884;DHT22;29544;52.018;5.810;2023-06-19T00:27:31;24.40;49.60
43884;DHT22;29544;52.018;5.810;2023-06-19T00:29:57;24.40;49.60
43884;DHT22;29544;52.018;5.810;2023-06-19T00:32:30;24.40;50.30
43884;DHT22;29544;52.018;5.810;2023-06-19T00:34:55;24.40;49.80
43884;DHT22;29544;52.018;5.810;2023-06-19T00:37:21;24.40;49.80
43884;DHT22;29544;52.018;5.810;2023-06-19T00:39:47;24.40;49.80
43884;DHT22;29544;52.018;5.810;2023-06-19T00:42:12;24.40;49.90
43884;DHT22;29544;52.018;5.810;2023-06-19T00:44:38;24.40;50.10
43884;DHT22;29544;52.018;5.810;2023-06-19T00:47:04;24.40;50.10
43884;DHT22;29544;52.018;5.810;2023-06-19T00:49:30;24.40;50.20
43884;DHT22;29544;52.018;5.810;2023-06-19T00:51:55;24.40;50.30
43884;DHT22;29544;52.018;5.810;2023-06-19T00:54:21;24.40;50.40
43884;DHT22;29544;52.018;5.810;2023-06-19T00:56:46;24.50;50.40
43884;DHT22;29544;52.018;5.810;2023-06-19T00:59:16;24.40;50.40
43884;DHT22;29544;52.018;5.810;2023-06-19T01:01:45;24.40;50.60
43884;DHT22;29544;52.018;5.810;2023-06-19T01:04:11;24.40;50.80
43884;DHT22;29544;52.018;5.810;2023-06-19T01:06:45;24.40;50.70
43884;DHT22;29544;52.018;5.810;2023-06-19T01:09:13;24.40;50.70
43884;DHT22;29544;52.018;5.810;2023-06-19T01:11:42;24.40;50.90
43884;DHT22;29544;52.018;5.810;2023-06-19T01:14:10;24.40;50.70
43884;DHT22;29544;52.018;5.810;2023-06-19T01:16:38;24.40;50.80
43884;DHT22;29544;52.018;5.810;2023-06-19T01:19:03;24.40;51.00
43884;DHT22;29544;52.018;5.810;2023-06-19T01:21:30;24.40;51.00
43884;DHT22;29544;52.018;5.810;2023-06-19T01:23:56;24.40;51.10
43884;DHT22;29544;52.018;5.810;2023-06-19T01:26:21;24.40;51.10
43884;DHT22;29544;52.018;5.810;2023-06-19T01:28:52;24.40;51.10
43884;DHT22;29544;52.018;5.810;2023-06-19T01:31:31;24.40;51.30
43884;DHT22;29544;52.018;5.810;2023-06-19T01:33:58;24.40;51.30
43884;DHT22;29544;52.018;5.810;2023-06-19T01:36:24;24.40;51.30
43884;DHT22;29544;52.018;5.810;2023-06-19T01:38:49;24.40;51.40
43884;DHT22;29544;52.018;5.810;2023-06-19T01:41:16;24.40;51.40
43884;DHT22;29544;52.018;5.810;2023-06-19T01:43:42;24.40;51.40
43884;DHT22;29544;52.018;5.810;2023-06-19T01:46:08;24.40;51.40
43884;DHT22;29544;52.018;5.810;2023-06-19T01:48:34;24.40;51.50
43884;DHT22;29544;52.018;5.810;2023-06-19T01:51:00;24.40;51.50
43884;DHT22;29544;52.018;5.810;2023-06-19T01:53:26;24.40;51.50
43884;DHT22;29544;52.018;5.810;2023-06-19T01:55:51;24.40;51.60
43884;DHT22;29544;52.018;5.810;2023-06-19T01:58:17;24.30;51.50
43884;DHT22;29544;52.018;5.810;2023-06-19T02:00:42;24.30;51.50
43884;DHT22;29544;52.018;5.810;2023-06-19T02:03:08;24.30;51.50
43884;DHT22;29544;52.018;5.810;2023-06-19T02:05:33;24.30;51.40
43884;DHT22;29544;52.018;5.810;2023-06-19T02:08:04;24.40;51.50
43884;DHT22;29544;52.018;5.810;2023-06-19T02:10:29;24.40;51.50
43884;DHT22;29544;52.018;5.810;2023-06-19T02:12:55;24.30;51.50
43884;DHT22;29544;52.018;5.810;2023-06-19T02:15:20;24.30;51.50
43884;DHT22;29544;52.018;5.810;2023-06-19T02:17:46;24.30;51.50
43884;DHT22;29544;52.018;5.810;2023-06-19T02:20:11;24.30;51.50
43884;DHT22;29544;52.018;5.810;2023-06-19T02:22:37;24.30;51.50
43884;DHT22;29544;52.018;5.810;2023-06-19T02:25:03;24.30;51.50
43884;DHT22;29544;52.018;5.810;2023-06-19T02:27:28;24.30;51.50
43884;DHT22;29544;52.018;5.810;2023-06-19T02:29:54;24.30;51.40
43884;DHT22;29544;52.018;5.810;2023-06-19T02:32:19;24.30;51.50
43884;DHT22;29544;52.018;5.810;2023-06-19T02:34:45;24.30;51.50
43884;DHT22;29544;52.018;5.810;2023-06-19T02:37:10;24.30;51.50
43884;DHT22;29544;52.018;5.810;2023-06-19T02:39:36;24.30;51.60
43884;DHT22;29544;52.018;5.810;2023-06-19T02:42:01;24.30;51.50
43884;DHT22;29544;52.018;5.810;2023-06-19T02:44:27;24.30;51.60
43884;DHT22;29544;52.018;5.810;2023-06-19T02:46:53;24.30;51.50
43884;DHT22;29544;52.018;5.810;2023-06-19T02:49:18;24.30;51.60
43884;DHT22;29544;52.018;5.810;2023-06-19T02:51:43;24.30;51.70
43884;DHT22;29544;52.018;5.810;2023-06-19T02:54:09;24.10;51.50
43884;DHT22;29544;52.018;5.810;2023-06-19T02:56:34;24.30;51.60
43884;DHT22;29544;52.018;5.810;2023-06-19T02:59:00;24.20;51.60
43884;DHT22;29544;52.018;5.810;2023-06-19T03:01:25;24.20;51.70
43884;DHT22;29544;52.018;5.810;2023-06-19T03:03:51;24.20;51.60
43884;DHT22;29544;52.018;5.810;2023-06-19T03:06:17;24.20;52.20
43884;DHT22;29544;52.018;5.810;2023-06-19T03:08:43;24.20;51.70
43884;DHT22;29544;52.018;5.810;2023-06-19T03:11:08;24.30;51.70
43884;DHT22;29544;52.018;5.810;2023-06-19T03:13:44;24.20;51.70
43884;DHT22;29544;52.018;5.810;2023-06-19T03:16:11;24.20;51.80
43884;DHT22;29544;52.018;5.810;2023-06-19T03:18:36;24.20;51.90
43884;DHT22;29544;52.018;5.810;2023-06-19T03:21:01;24.20;52.00
43884;DHT22;29544;52.018;5.810;2023-06-19T03:23:27;24.20;51.90
43884;DHT22;29544;52.018;5.810;2023-06-19T03:25:52;24.20;52.10
43884;DHT22;29544;52.018;5.810;2023-06-19T03:28:18;24.20;52.00
43884;DHT22;29544;52.018;5.810;2023-06-19T03:30:43;24.20;52.20
43884;DHT22;29544;52.018;5.810;2023-06-19T03:33:09;24.20;52.30
43884;DHT22;29544;52.018;5.810;2023-06-19T03:35:34;24.20;52.30
43884;DHT22;29544;52.018;5.810;2023-06-19T03:37:59;24.20;52.40
43884;DHT22;29544;52.018;5.810;2023-06-19T03:40:25;24.20;52.50
43884;DHT22;29544;52.018;5.810;2023-06-19T03:42:50;24.10;53.20
43884;DHT22;29544;52.018;5.810;2023-06-19T03:45:16;24.10;52.50
43884;DHT22;29544;52.018;5.810;2023-06-19T03:47:41;24.20;52.70
43884;DHT22;29544;52.018;5.810;2023-06-19T03:50:07;24.10;52.70
43884;DHT22;29544;52.018;5.810;2023-06-19T03:52:35;24.10;52.70
43884;DHT22;29544;52.018;5.810;2023-06-19T03:55:01;24.10;52.70
43884;DHT22;29544;52.018;5.810;2023-06-19T03:57:26;24.10;52.70
43884;DHT22;29544;52.018;5.810;2023-06-19T03:59:52;24.10;52.70
43884;DHT22;29544;52.018;5.810;2023-06-19T04:02:19;24.20;52.80
43884;DHT22;29544;52.018;5.810;2023-06-19T04:04:44;24.10;52.90
43884;DHT22;29544;52.018;5.810;2023-06-19T04:07:10;24.10;53.00
43884;DHT22;29544;52.018;5.810;2023-06-19T04:09:35;24.10;52.90
43884;DHT22;29544;52.018;5.810;2023-06-19T04:12:01;24.10;52.90
43884;DHT22;29544;52.018;5.810;2023-06-19T04:14:26;24.10;53.00
43884;DHT22;29544;52.018;5.810;2023-06-19T04:16:52;24.10;52.90
43884;DHT22;29544;52.018;5.810;2023-06-19T04:19:17;24.10;53.00
43884;DHT22;29544;52.018;5.810;2023-06-19T04:21:43;24.10;53.10
43884;DHT22;29544;52.018;5.810;2023-06-19T04:24:08;24.10;53.70
43884;DHT22;29544;52.018;5.810;2023-06-19T04:26:34;24.10;53.10
43884;DHT22;29544;52.018;5.810;2023-06-19T04:29:00;24.10;53.20
43884;DHT22;29544;52.018;5.810;2023-06-19T04:31:26;24.10;53.30
43884;DHT22;29544;52.018;5.810;2023-06-19T04:33:52;24.10;53.40
43884;DHT22;29544;52.018;5.810;2023-06-19T04:36:17;24.10;53.50
43884;DHT22;29544;52.018;5.810;2023-06-19T04:38:44;24.10;53.60
43884;DHT22;29544;52.018;5.810;2023-06-19T04:41:10;24.10;53.70
43884;DHT22;29544;52.018;5.810;2023-06-19T04:43:35;24.10;53.70
43884;DHT22;29544;52.018;5.810;2023-06-19T04:46:01;24.10;53.90
43884;DHT22;29544;52.018;5.810;2023-06-19T04:48:29;24.10;54.00
43884;DHT22;29544;52.018;5.810;2023-06-19T04:50:54;24.10;54.20
43884;DHT22;29544;52.018;5.810;2023-06-19T04:53:21;24.00;54.20
43884;DHT22;29544;52.018;5.810;2023-06-19T04:55:46;24.00;54.20
43884;DHT22;29544;52.018;5.810;2023-06-19T04:58:12;24.10;54.40
43884;DHT22;29544;52.018;5.810;2023-06-19T05:00:37;24.10;54.30
43884;DHT22;29544;52.018;5.810;2023-06-19T05:03:03;24.10;54.70
43884;DHT22;29544;52.018;5.810;2023-06-19T05:05:28;24.10;54.90
43884;DHT22;29544;52.018;5.810;2023-06-19T05:07:54;24.10;54.70
43884;DHT22;29544;52.018;5.810;2023-06-19T05:10:19;24.10;54.70
43884;DHT22;29544;52.018;5.810;2023-06-19T05:12:44;24.00;54.80
43884;DHT22;29544;52.018;5.810;2023-06-19T05:15:10;24.00;54.90
43884;DHT22;29544;52.018;5.810;2023-06-19T05:17:36;24.00;55.20
43884;DHT22;29544;52.018;5.810;2023-06-19T05:20:04;24.00;55.30
43884;DHT22;29544;52.018;5.810;2023-06-19T05:22:30;24.00;55.40
43884;DHT22;29544;52.018;5.810;2023-06-19T05:24:56;24.00;55.30
43884;DHT22;29544;52.018;5.810;2023-06-19T05:27:22;24.00;55.20
43884;DHT22;29544;52.018;5.810;2023-06-19T05:29:47;24.00;55.40
43884;DHT22;29544;52.018;5.810;2023-06-19T05:32:13;24.00;55.50
43884;DHT22;29544;52.018;5.810;2023-06-19T05:34:38;24.00;55.60
43884;DHT22;29544;52.018;5.810;2023-06-19T05:37:04;24.00;55.60
43884;DHT22;29544;52.018;5.810;2023-06-19T05:39:29;24.10;55.60
43884;DHT22;29544;52.018;5.810;2023-06-19T05:41:55;24.00;55.60
43884;DHT22;29544;52.018;5.810;2023-06-19T05:44:20;24.00;55.60
43884;DHT22;29544;52.018;5.810;2023-06-19T05:46:45;24.00;55.80
43884;DHT22;29544;52.018;5.810;2023-06-19T05:49:11;24.00;55.80
43884;DHT22;29544;52.018;5.810;2023-06-19T05:51:36;24.00;56.00
43884;DHT22;29544;52.018;5.810;2023-06-19T05:54:02;24.00;55.90
43884;DHT22;29544;52.018;5.810;2023-06-19T05:56:29;24.00;56.20
43884;DHT22;29544;52.018;5.810;2023-06-19T05:58:54;24.00;56.10
43884;DHT22;29544;52.018;5.810;2023-06-19T06:01:20;24.00;56.20
43884;DHT22;29544;52.018;5.810;2023-06-19T06:03:45;24.00;56.20
43884;DHT22;29544;52.018;5.810;2023-06-19T06:06:11;24.00;56.10
43884;DHT22;29544;52.018;5.810;2023-06-19T06:08:36;24.00;56.10
43884;DHT22;29544;52.018;5.810;2023-06-19T06:11:02;24.00;56.20
43884;DHT22;29544;52.018;5.810;2023-06-19T06:13:27;24.00;56.10
43884;DHT22;29544;52.018;5.810;2023-06-19T06:15:53;24.00;56.30
43884;DHT22;29544;52.018;5.810;2023-06-19T06:18:19;24.00;56.30
43884;DHT22;29544;52.018;5.810;2023-06-19T06:20:44;24.00;56.30
43884;DHT22;29544;52.018;5.810;2023-06-19T06:23:10;24.00;56.20
43884;DHT22;29544;52.018;5.810;2023-06-19T06:25:35;24.00;56.30
43884;DHT22;29544;52.018;5.810;2023-06-19T06:28:00;24.00;56.30
43884;DHT22;29544;52.018;5.810;2023-06-19T06:30:26;24.00;56.30
43884;DHT22;29544;52.018;5.810;2023-06-19T06:32:53;24.00;56.40
43884;DHT22;29544;52.018;5.810;2023-06-19T06:35:18;24.00;56.30
43884;DHT22;29544;52.018;5.810;2023-06-19T06:37:44;24.00;56.30
43884;DHT22;29544;52.018;5.810;2023-06-19T06:40:11;24.00;56.30
43884;DHT22;29544;52.018;5.810;2023-06-19T06:42:37;24.00;56.40
43884;DHT22;29544;52.018;5.810;2023-06-19T06:45:04;24.00;56.30
43884;DHT22;29544;52.018;5.810;2023-06-19T06:47:29;24.00;56.20
43884;DHT22;29544;52.018;5.810;2023-06-19T06:49:55;24.00;56.10
43884;DHT22;29544;52.018;5.810;2023-06-19T06:52:20;24.00;56.10
43884;DHT22;29544;52.018;5.810;2023-06-19T06:54:46;24.00;56.10
43884;DHT22;29544;52.018;5.810;2023-06-19T06:57:11;24.00;56.10
43884;DHT22;29544;52.018;5.810;2023-06-19T06:59:37;24.00;56.10
43884;DHT22;29544;52.018;5.810;2023-06-19T07:02:02;24.00;56.10
43884;DHT22;29544;52.018;5.810;2023-06-19T07:04:28;24.00;55.90
43884;DHT22;29544;52.018;5.810;2023-06-19T07:06:53;24.00;55.90
43884;DHT22;29544;52.018;5.810;2023-06-19T07:09:19;24.00;55.90
43884;DHT22;29544;52.018;5.810;2023-06-19T07:11:46;24.00;55.90
43884;DHT22;29544;52.018;5.810;2023-06-19T07:14:12;24.00;55.90
43884;DHT22;29544;52.018;5.810;2023-06-19T07:16:37;24.00;55.90
43884;DHT22;29544;52.018;5.810;2023-06-19T07:19:03;24.00;55.80
43884;DHT22;29544;52.018;5.810;2023-06-19T07:21:28;24.00;55.80
43884;DHT22;29544;52.018;5.810;2023-06-19T07:23:55;24.00;55.80
43884;DHT22;29544;52.018;5.810;2023-06-19T07:26:20;24.00;55.80
43884;DHT22;29544;52.018;5.810;2023-06-19T07:28:46;24.00;55.70
43884;DHT22;29544;52.018;5.810;2023-06-19T07:31:11;24.00;55.60
43884;DHT22;29544;52.018;5.810;2023-06-19T07:33:36;24.00;55.60
43884;DHT22;29544;52.018;5.810;2023-06-19T07:36:02;24.00;55.60
43884;DHT22;29544;52.018;5.810;2023-06-19T07:38:28;24.00;55.60
43884;DHT22;29544;52.018;5.810;2023-06-19T07:40:53;24.00;55.60
43884;DHT22;29544;52.018;5.810;2023-06-19T07:43:18;24.00;55.60
43884;DHT22;29544;52.018;5.810;2023-06-19T07:45:44;24.00;55.60
43884;DHT22;29544;52.018;5.810;2023-06-19T07:48:09;24.00;55.50
43884;DHT22;29544;52.018;5.810;2023-06-19T07:50:35;24.00;55.50
43884;DHT22;29544;52.018;5.810;2023-06-19T07:53:00;24.00;55.50
43884;DHT22;29544;52.018;5.810;2023-06-19T07:55:26;24.00;55.50
43884;DHT22;29544;52.018;5.810;2023-06-19T07:57:51;24.00;55.50
43884;DHT22;29544;52.018;5.810;2023-06-19T08:00:17;24.00;55.40
43884;DHT22;29544;52.018;5.810;2023-06-19T08:02:43;24.00;55.50
43884;DHT22;29544;52.018;5.810;2023-06-19T08:05:08;24.00;55.40
43884;DHT22;29544;52.018;5.810;2023-06-19T08:07:35;24.00;55.40
43884;DHT22;29544;52.018;5.810;2023-06-19T08:10:01;24.00;55.40
43884;DHT22;29544;52.018;5.810;2023-06-19T08:12:26;24.00;55.40
43884;DHT22;29544;52.018;5.810;2023-06-19T08:14:52;24.00;55.40
43884;DHT22;29544;52.018;5.810;2023-06-19T08:17:17;24.00;55.30
43884;DHT22;29544;52.018;5.810;2023-06-19T08:19:42;24.00;55.30
43884;DHT22;29544;52.018;5.810;2023-06-19T08:22:08;24.00;55.30
43884;DHT22;29544;52.018;5.810;2023-06-19T08:24:34;24.00;55.30
43884;DHT22;29544;52.018;5.810;2023-06-19T08:27:01;24.00;55.20
43884;DHT22;29544;52.018;5.810;2023-06-19T08:29:27;24.00;55.30
43884;DHT22;29544;52.018;5.810;2023-06-19T08:31:52;24.00;55.30
43884;DHT22;29544;52.018;5.810;2023-06-19T08:34:17;24.00;55.20
43884;DHT22;29544;52.018;5.810;2023-06-19T08:36:43;24.00;55.30
43884;DHT22;29544;52.018;5.810;2023-06-19T08:39:09;24.00;55.30
43884;DHT22;29544;52.018;5.810;2023-06-19T08:41:36;24.00;55.30
43884;DHT22;29544;52.018;5.810;2023-06-19T08:44:02;24.00;55.20
43884;DHT22;29544;52.018;5.810;2023-06-19T08:46:28;24.00;55.30
43884;DHT22;29544;52.018;5.810;2023-06-19T08:48:54;24.00;55.30
43884;DHT22;29544;52.018;5.810;2023-06-19T08:51:20;24.00;55.20
43884;DHT22;29544;52.018;5.810;2023-06-19T08:56:11;24.00;55.30
43884;DHT22;29544;52.018;5.810;2023-06-19T08:58:36;24.00;55.20
43884;DHT22;29544;52.018;5.810;2023-06-19T09:01:02;24.00;55.20
43884;DHT22;29544;52.018;5.810;2023-06-19T09:03:28;24.00;55.20
43884;DHT22;29544;52.018;5.810;2023-06-19T09:05:53;24.00;55.30
43884;DHT22;29544;52.018;5.810;2023-06-19T09:08:19;24.00;55.20
43884;DHT22;29544;52.018;5.810;2023-06-19T09:10:55;24.00;55.30
43884;DHT22;29544;52.018;5.810;2023-06-19T09:13:20;24.00;55.20
43884;DHT22;29544;52.018;5.810;2023-06-19T09:15:46;24.00;55.20
43884;DHT22;29544;52.018;5.810;2023-06-19T09:18:11;24.00;55.20
43884;DHT22;29544;52.018;5.810;2023-06-19T09:20:39;24.00;55.20
43884;DHT22;29544;52.018;5.810;2023-06-19T09:23:09;24.00;55.20
43884;DHT22;29544;52.018;5.810;2023-06-19T09:25:48;24.00;55.20
43884;DHT22;29544;52.018;5.810;2023-06-19T09:28:20;24.10;55.20
43884;DHT22;29544;52.018;5.810;2023-06-19T09:30:55;24.00;55.20
43884;DHT22;29544;52.018;5.810;2023-06-19T09:33:22;24.00;55.20
43884;DHT22;29544;52.018;5.810;2023-06-19T09:35:48;24.00;55.20
43884;DHT22;29544;52.018;5.810;2023-06-19T09:38:14;24.00;55.20
43884;DHT22;29544;52.018;5.810;2023-06-19T09:40:42;24.10;55.20
43884;DHT22;29544;52.018;5.810;2023-06-19T09:43:08;24.10;55.30
43884;DHT22;29544;52.018;5.810;2023-06-19T09:45:34;24.10;55.30
43884;DHT22;29544;52.018;5.810;2023-06-19T09:48:00;24.00;55.20
43884;DHT22;29544;52.018;5.810;2023-06-19T09:50:25;24.00;55.20
43884;DHT22;29544;52.018;5.810;2023-06-19T09:52:52;24.10;55.30
43884;DHT22;29544;52.018;5.810;2023-06-19T09:55:18;24.10;55.30
43884;DHT22;29544;52.018;5.810;2023-06-19T09:57:44;24.10;55.30
43884;DHT22;29544;52.018;5.810;2023-06-19T10:00:10;24.10;55.30
43884;DHT22;29544;52.018;5.810;2023-06-19T10:02:42;24.10;55.30
43884;DHT22;29544;52.018;5.810;2023-06-19T10:05:08;24.10;55.30
43884;DHT22;29544;52.018;5.810;2023-06-19T10:07:37;24.10;55.30
43884;DHT22;29544;52.018;5.810;2023-06-19T10:10:06;24.10;55.30
43884;DHT22;29544;52.018;5.810;2023-06-19T10:15:07;24.10;55.30
43884;DHT22;29544;52.018;5.810;2023-06-19T10:17:33;24.20;55.40
43884;DHT22;29544;52.018;5.810;2023-06-19T10:19:58;24.10;55.40
43884;DHT22;29544;52.018;5.810;2023-06-19T10:22:24;24.20;55.40
43884;DHT22;29544;52.018;5.810;2023-06-19T10:24:55;24.20;55.40
43884;DHT22;29544;52.018;5.810;2023-06-19T10:27:21;24.20;55.40
43884;DHT22;29544;52.018;5.810;2023-06-19T10:29:51;24.20;55.40
43884;DHT22;29544;52.018;5.810;2023-06-19T10:32:17;24.20;55.40
43884;DHT22;29544;52.018;5.810;2023-06-19T10:34:45;24.20;55.40
43884;DHT22;29544;52.018;5.810;2023-06-19T10:37:12;24.20;55.30
43884;DHT22;29544;52.018;5.810;2023-06-19T10:39:38;24.30;55.30
43884;DHT22;29544;52.018;5.810;2023-06-19T10:42:06;24.30;55.30
43884;DHT22;29544;52.018;5.810;2023-06-19T10:44:32;24.30;55.40
43884;DHT22;29544;52.018;5.810;2023-06-19T10:46:58;24.30;55.30
43884;DHT22;29544;52.018;5.810;2023-06-19T10:49:24;24.30;55.30
43884;DHT22;29544;52.018;5.810;2023-06-19T10:51:49;24.30;55.30
43884;DHT22;29544;52.018;5.810;2023-06-19T10:54:15;24.30;55.30
43884;DHT22;29544;52.018;5.810;2023-06-19T10:56:40;24.30;55.30
43884;DHT22;29544;52.018;5.810;2023-06-19T10:59:09;24.30;55.20
43884;DHT22;29544;52.018;5.810;2023-06-19T11:01:37;24.30;55.20
43884;DHT22;29544;52.018;5.810;2023-06-19T11:04:04;24.40;55.30
43884;DHT22;29544;52.018;5.810;2023-06-19T11:06:30;24.40;55.20
43884;DHT22;29544;52.018;5.810;2023-06-19T11:08:55;24.40;55.20
43884;DHT22;29544;52.018;5.810;2023-06-19T11:11:21;24.40;55.20
43884;DHT22;29544;52.018;5.810;2023-06-19T11:13:47;24.40;55.10
43884;DHT22;29544;52.018;5.810;2023-06-19T11:16:14;24.40;55.10
43884;DHT22;29544;52.018;5.810;2023-06-19T11:18:39;24.40;55.00
43884;DHT22;29544;52.018;5.810;2023-06-19T11:21:05;24.50;55.10
43884;DHT22;29544;52.018;5.810;2023-06-19T11:23:30;24.50;55.00
43884;DHT22;29544;52.018;5.810;2023-06-19T11:26:05;24.50;55.00
43884;DHT22;29544;52.018;5.810;2023-06-19T11:28:31;24.50;55.00
43884;DHT22;29544;52.018;5.810;2023-06-19T11:31:03;24.50;55.00
43884;DHT22;29544;52.018;5.810;2023-06-19T11:33:28;24.50;54.90
43884;DHT22;29544;52.018;5.810;2023-06-19T11:35:54;24.50;55.00
43884;DHT22;29544;52.018;5.810;2023-06-19T11:38:24;24.50;54.90
43884;DHT22;29544;52.018;5.810;2023-06-19T11:40:50;24.60;54.90
43884;DHT22;29544;52.018;5.810;2023-06-19T11:43:31;24.60;54.90
43884;DHT22;29544;52.018;5.810;2023-06-19T11:46:03;24.60;54.90
43884;DHT22;29544;52.018;5.810;2023-06-19T11:48:29;24.60;54.90
43884;DHT22;29544;52.018;5.810;2023-06-19T11:50:55;24.60;54.90
43884;DHT22;29544;52.018;5.810;2023-06-19T11:53:20;24.60;54.90
43884;DHT22;29544;52.018;5.810;2023-06-19T11:55:46;24.70;55.00
43884;DHT22;29544;52.018;5.810;2023-06-19T11:58:12;24.70;54.90
43884;DHT22;29544;52.018;5.810;2023-06-19T12:00:38;24.70;54.90
43884;DHT22;29544;52.018;5.810;2023-06-19T12:03:03;24.70;54.90
43884;DHT22;29544;52.018;5.810;2023-06-19T12:05:29;24.70;54.80
43884;DHT22;29544;52.018;5.810;2023-06-19T12:07:55;24.70;54.90
43884;DHT22;29544;52.018;5.810;2023-06-19T12:10:20;24.70;54.80
43884;DHT22;29544;52.018;5.810;2023-06-19T12:12:45;24.80;54.90
43884;DHT22;29544;52.018;5.810;2023-06-19T12:15:11;24.80;54.90
43884;DHT22;29544;52.018;5.810;2023-06-19T12:17:36;24.80;54.80
43884;DHT22;29544;52.018;5.810;2023-06-19T12:20:02;24.80;54.70
43884;DHT22;29544;52.018;5.810;2023-06-19T12:22:32;24.80;54.70
43884;DHT22;29544;52.018;5.810;2023-06-19T12:24:57;24.90;54.70
43884;DHT22;29544;52.018;5.810;2023-06-19T12:27:23;24.90;54.70
43884;DHT22;29544;52.018;5.810;2023-06-19T12:29:48;24.90;54.60
43884;DHT22;29544;52.018;5.810;2023-06-19T12:32:13;24.90;54.50
43884;DHT22;29544;52.018;5.810;2023-06-19T12:34:39;25.00;54.50
43884;DHT22;29544;52.018;5.810;2023-06-19T12:37:05;25.00;54.50
43884;DHT22;29544;52.018;5.810;2023-06-19T12:39:31;25.00;54.50
43884;DHT22;29544;52.018;5.810;2023-06-19T12:41:58;25.00;54.50
43884;DHT22;29544;52.018;5.810;2023-06-19T12:44:23;25.00;54.30
43884;DHT22;29544;52.018;5.810;2023-06-19T12:46:50;25.10;54.30
43884;DHT22;29544;52.018;5.810;2023-06-19T12:49:15;25.10;54.20
43884;DHT22;29544;52.018;5.810;2023-06-19T12:51:41;25.10;54.20
43884;DHT22;29544;52.018;5.810;2023-06-19T12:54:06;25.10;54.10
43884;DHT22;29544;52.018;5.810;2023-06-19T12:56:32;25.10;54.00
43884;DHT22;29544;52.018;5.810;2023-06-19T12:58:57;25.10;53.90
43884;DHT22;29544;52.018;5.810;2023-06-19T13:01:23;25.20;53.90
43884;DHT22;29544;52.018;5.810;2023-06-19T13:03:48;25.20;53.70
43884;DHT22;29544;52.018;5.810;2023-06-19T13:06:13;25.20;53.70
43884;DHT22;29544;52.018;5.810;2023-06-19T13:08:39;25.20;53.60
43884;DHT22;29544;52.018;5.810;2023-06-19T13:11:04;25.20;53.50
43884;DHT22;29544;52.018;5.810;2023-06-19T13:13:30;25.20;53.60
43884;DHT22;29544;52.018;5.810;2023-06-19T13:15:55;25.30;53.50
43884;DHT22;29544;52.018;5.810;2023-06-19T13:18:21;25.30;53.50
43884;DHT22;29544;52.018;5.810;2023-06-19T13:20:46;25.30;53.50
43884;DHT22;29544;52.018;5.810;2023-06-19T13:23:13;25.30;53.40
43884;DHT22;29544;52.018;5.810;2023-06-19T13:25:39;25.40;53.40
43884;DHT22;29544;52.018;5.810;2023-06-19T13:28:04;25.40;53.30
43884;DHT22;29544;52.018;5.810;2023-06-19T13:30:30;25.40;53.30
43884;DHT22;29544;52.018;5.810;2023-06-19T13:32:55;25.40;53.20
43884;DHT22;29544;52.018;5.810;2023-06-19T13:35:21;25.50;53.20
43884;DHT22;29544;52.018;5.810;2023-06-19T13:37:47;25.50;53.20
43884;DHT22;29544;52.018;5.810;2023-06-19T13:40:12;25.50;53.10
43884;DHT22;29544;52.018;5.810;2023-06-19T13:42:38;25.50;53.10
43884;DHT22;29544;52.018;5.810;2023-06-19T13:45:04;25.60;53.10
43884;DHT22;29544;52.018;5.810;2023-06-19T13:47:29;25.50;53.00
43884;DHT22;29544;52.018;5.810;2023-06-19T13:49:55;25.60;53.10
43884;DHT22;29544;52.018;5.810;2023-06-19T13:52:21;25.60;53.00
43884;DHT22;29544;52.018;5.810;2023-06-19T13:54:46;25.60;52.80
43884;DHT22;29544;52.018;5.810;2023-06-19T13:57:12;25.70;52.90
43884;DHT22;29544;52.018;5.810;2023-06-19T13:59:37;25.60;52.70
43884;DHT22;29544;52.018;5.810;2023-06-19T14:02:02;25.70;52.70
43884;DHT22;29544;52.018;5.810;2023-06-19T14:04:28;25.70;52.60
43884;DHT22;29544;52.018;5.810;2023-06-19T14:06:53;25.70;52.40
43884;DHT22;29544;52.018;5.810;2023-06-19T14:09:21;25.70;52.20
43884;DHT22;29544;52.018;5.810;2023-06-19T14:11:47;25.70;52.10
43884;DHT22;29544;52.018;5.810;2023-06-19T14:14:12;25.70;52.10
43884;DHT22;29544;52.018;5.810;2023-06-19T14:16:38;25.70;52.00
43884;DHT22;29544;52.018;5.810;2023-06-19T14:19:03;25.80;52.00
43884;DHT22;29544;52.018;5.810;2023-06-19T14:21:28;25.70;51.70
43884;DHT22;29544;52.018;5.810;2023-06-19T14:23:54;25.80;51.80
43884;DHT22;29544;52.018;5.810;2023-06-19T14:26:19;25.80;51.70
43884;DHT22;29544;52.018;5.810;2023-06-19T14:28:45;25.80;51.70
43884;DHT22;29544;52.018;5.810;2023-06-19T14:31:10;25.80;51.60
43884;DHT22;29544;52.018;5.810;2023-06-19T14:33:36;25.90;51.50
43884;DHT22;29544;52.018;5.810;2023-06-19T14:36:03;25.90;51.50
43884;DHT22;29544;52.018;5.810;2023-06-19T14:38:28;25.90;51.40
43884;DHT22;29544;52.018;5.810;2023-06-19T14:41:01;25.90;51.40
43884;DHT22;29544;52.018;5.810;2023-06-19T14:43:26;25.90;51.40
43884;DHT22;29544;52.018;5.810;2023-06-19T14:45:52;25.90;51.40
43884;DHT22;29544;52.018;5.810;2023-06-19T14:48:18;25.90;51.30
43884;DHT22;29544;52.018;5.810;2023-06-19T14:50:43;25.90;51.30
43884;DHT22;29544;52.018;5.810;2023-06-19T14:53:08;26.00;51.30
43884;DHT22;29544;52.018;5.810;2023-06-19T14:55:34;25.90;51.10
43884;DHT22;29544;52.018;5.810;2023-06-19T14:57:59;25.90;51.10
43884;DHT22;29544;52.018;5.810;2023-06-19T15:00:25;26.00;51.20
43884;DHT22;29544;52.018;5.810;2023-06-19T15:02:50;25.90;51.10
43884;DHT22;29544;52.018;5.810;2023-06-19T15:05:16;26.00;51.00
43884;DHT22;29544;52.018;5.810;2023-06-19T15:07:41;26.00;50.90
43884;DHT22;29544;52.018;5.810;2023-06-19T15:10:07;26.00;50.90
43884;DHT22;29544;52.018;5.810;2023-06-19T15:12:32;26.00;50.90
43884;DHT22;29544;52.018;5.810;2023-06-19T15:15:00;26.00;50.80
43884;DHT22;29544;52.018;5.810;2023-06-19T15:17:25;26.00;50.80
43884;DHT22;29544;52.018;5.810;2023-06-19T15:19:51;26.00;50.80
43884;DHT22;29544;52.018;5.810;2023-06-19T15:22:16;26.00;50.70
43884;DHT22;29544;52.018;5.810;2023-06-19T15:24:42;26.10;50.90
43884;DHT22;29544;52.018;5.810;2023-06-19T15:27:07;26.10;50.90